Time;durP1;ratioP1;P1;durP2;ratioP2;P2;SDS_P1;SDS_P2;PMS_P1;PMS_P2;Temp;Humidity;BMP_temperature;BMP_pressure;BME280_temperature;BME280_humidity;BME280_pressure;Samples;Min_cycle;Max_cycle;Signal;HPM_P1;HPM_P2
2023/12/06 00:01:25;;;;;;;33.17;16.40;;;0.90;99.90;;;;;;5094937;28;20528;-55
2023/12/06 00:03:51;;;;;;;32.63;15.88;;;0.90;99.90;;;;;;5094788;28;20056;-54
2023/12/06 00:06:17;;;;;;;32.92;17.10;;;0.90;99.90;;;;;;5095009;28;20510;-55
2023/12/06 00:08:42;;;;;;;30.67;15.45;;;0.90;99.90;;;;;;5127866;27;20054;-54
2023/12/06 00:11:08;;;;;;;33.92;16.95;;;0.90;99.90;;;;;;5095034;28;20089;-54
2023/12/06 00:13:34;;;;;;;33.90;16.52;;;0.90;99.90;;;;;;5094866;28;20509;-54
2023/12/06 00:16:00;;;;;;;32.03;16.02;;;0.90;99.90;;;;;;5094848;28;20086;-55
2023/12/06 00:18:26;;;;;;;29.83;15.77;;;0.90;99.90;;;;;;5094568;28;20126;-54
2023/12/06 00:20:51;;;;;;;31.88;16.48;;;1.00;99.90;;;;;;5093879;28;20048;-54
2023/12/06 00:23:17;;;;;;;30.30;14.90;;;0.90;99.90;;;;;;5094874;28;20138;-54
2023/12/06 00:25:43;;;;;;;31.88;15.98;;;0.90;99.90;;;;;;5094665;28;20044;-53
2023/12/06 00:28:08;;;;;;;32.22;16.30;;;0.90;99.90;;;;;;5094610;28;20099;-53
2023/12/06 00:30:36;;;;;;;33.42;16.85;;;0.90;99.90;;;;;;5094601;28;20056;-54
2023/12/06 00:33:02;;;;;;;;;;;0.90;99.90;;;;;;5094969;28;20075;-53
2023/12/06 00:35:27;;;;;;;32.92;16.10;;;0.90;99.90;;;;;;5094531;28;19927;-53
2023/12/06 00:37:53;;;;;;;33.97;16.40;;;0.90;99.90;;;;;;5094480;28;20048;-54
2023/12/06 00:40:19;;;;;;;32.35;16.67;;;0.90;99.90;;;;;;5094392;28;20054;-54
2023/12/06 00:42:44;;;;;;;30.90;16.42;;;1.00;99.90;;;;;;5093374;28;20070;-53
2023/12/06 00:45:10;;;;;;;34.25;15.70;;;0.90;99.90;;;;;;5094082;28;20047;-52
2023/12/06 00:47:36;;;;;;;29.10;15.68;;;0.90;99.90;;;;;;5094247;28;20055;-53
2023/12/06 00:50:04;;;;;;;34.92;16.00;;;0.90;99.90;;;;;;5093331;28;20078;-55
2023/12/06 00:52:29;;;;;;;30.60;15.27;;;0.90;99.90;;;;;;5093614;28;20504;-54
2023/12/06 00:54:55;;;;;;;35.17;15.77;;;0.90;99.90;;;;;;5094046;28;20127;-54
2023/12/06 00:57:21;;;;;;;31.08;16.88;;;0.90;99.90;;;;;;5076152;28;20141;-55
2023/12/06 00:59:47;;;;;;;34.25;16.85;;;1.00;99.90;;;;;;5094550;28;20410;-53
2023/12/06 01:02:12;;;;;;;30.38;15.52;;;0.90;99.90;;;;;;5094432;28;20052;-54
2023/12/06 01:04:38;;;;;;;32.72;15.75;;;0.90;99.90;;;;;;5092712;28;20113;-55
2023/12/06 01:07:04;;;;;;;32.05;15.90;;;1.00;99.90;;;;;;5094014;28;20040;-54
2023/12/06 01:09:30;;;;;;;34.72;17.67;;;1.00;99.90;;;;;;5093999;28;20047;-54
2023/12/06 01:11:56;;;;;;;32.25;15.77;;;0.90;99.90;;;;;;5093869;28;20044;-55
2023/12/06 01:14:22;;;;;;;33.60;16.05;;;0.90;99.90;;;;;;5093962;28;20089;-54
2023/12/06 01:16:48;;;;;;;31.42;16.35;;;1.00;99.90;;;;;;5093664;28;20465;-54
2023/12/06 01:19:15;;;;;;;31.50;16.52;;;0.90;99.90;;;;;;5093876;28;20565;-54
2023/12/06 01:21:41;;;;;;;34.50;17.65;;;1.00;99.90;;;;;;5093970;28;20048;-55
2023/12/06 01:24:06;;;;;;;34.35;16.27;;;1.00;99.90;;;;;;5093727;28;20399;-52
2023/12/06 01:26:32;;;;;;;35.97;16.85;;;1.00;99.90;;;;;;5093792;28;20044;-54
2023/12/06 01:28:59;;;;;;;33.00;15.15;;;1.00;99.90;;;;;;5092732;28;20398;-54
2023/12/06 01:31:25;;;;;;;30.98;15.45;;;1.00;99.90;;;;;;5093820;28;20083;-54
2023/12/06 01:33:50;;;;;;;34.88;16.70;;;1.00;99.90;;;;;;5093799;28;20128;-54
2023/12/06 01:36:16;;;;;;;32.78;16.90;;;1.00;99.90;;;;;;5093535;28;20044;-54
2023/12/06 01:38:42;;;;;;;30.88;16.75;;;1.00;99.90;;;;;;5093562;28;20072;-54
2023/12/06 01:41:11;;;;;;;34.80;17.25;;;1.00;99.90;;;;;;5093910;28;20055;-54
2023/12/06 01:43:42;;;;;;;31.10;15.38;;;1.00;99.90;;;;;;5092419;28;20502;-54
2023/12/06 01:46:08;;;;;;;29.60;14.75;;;1.00;99.90;;;;;;5092802;28;20052;-53
2023/12/06 01:48:34;;;;;;;33.03;16.67;;;1.00;99.90;;;;;;5093798;28;20432;-54
2023/12/06 01:51:00;;;;;;;30.95;14.38;;;1.00;99.90;;;;;;5092784;28;20132;-54
2023/12/06 01:53:25;;;;;;;29.00;14.82;;;1.00;99.90;;;;;;5095349;28;20123;-54
2023/12/06 01:55:51;;;;;;;31.15;16.63;;;1.00;99.90;;;;;;5097364;28;20040;-54
2023/12/06 01:58:17;;;;;;;35.88;15.95;;;1.00;99.90;;;;;;5097467;28;20040;-54
2023/12/06 02:00:44;;;;;;;31.55;15.70;;;1.00;99.90;;;;;;5097579;28;20123;-53
2023/12/06 02:03:10;;;;;;;30.65;16.13;;;1.00;99.90;;;;;;5097314;28;20044;-54
2023/12/06 02:05:36;;;;;;;32.55;15.10;;;1.00;99.90;;;;;;5097530;28;20074;-53
2023/12/06 02:08:04;;;;;;;28.65;14.55;;;1.00;99.90;;;;;;5097374;28;20087;-54
2023/12/06 02:10:29;;;;;;;26.00;13.65;;;1.00;99.90;;;;;;5096252;28;20048;-54
2023/12/06 02:12:55;;;;;;;26.05;13.23;;;1.00;99.90;;;;;;5097095;28;20040;-54
2023/12/06 02:15:21;;;;;;;24.08;12.88;;;1.00;99.90;;;;;;5097738;28;20406;-54
2023/12/06 02:17:48;;;;;;;23.77;12.63;;;1.10;99.90;;;;;;5097237;28;20126;-54
2023/12/06 02:20:14;;;;;;;24.48;12.57;;;1.00;99.90;;;;;;5097049;28;20131;-55
2023/12/06 02:22:40;;;;;;;21.80;11.98;;;1.10;99.90;;;;;;5097068;28;20505;-54
2023/12/06 02:25:14;;;;;;;22.25;11.57;;;1.00;99.90;;;;;;5096050;28;20441;-54
2023/12/06 02:27:41;;;;;;;20.88;10.35;;;1.10;99.90;;;;;;5096985;28;20054;-54
2023/12/06 02:30:09;;;;;;;18.63;10.73;;;1.10;99.90;;;;;;5096937;28;20044;-53
2023/12/06 02:32:34;;;;;;;18.55;10.13;;;1.10;99.90;;;;;;5096666;28;20406;-54
2023/12/06 02:35:02;;;;;;;18.70;10.27;;;1.10;99.90;;;;;;5096769;28;20043;-55
2023/12/06 02:37:28;;;;;;;17.25;9.57;;;1.10;99.90;;;;;;5096624;28;20449;-54
2023/12/06 02:39:55;;;;;;;18.08;9.20;;;1.10;99.90;;;;;;5096578;28;20079;-54
2023/12/06 02:42:21;;;;;;;18.25;9.45;;;1.10;99.90;;;;;;5096707;28;20048;-54
2023/12/06 02:44:46;;;;;;;16.20;9.13;;;1.10;99.90;;;;;;5096650;28;20432;-53
2023/12/06 02:47:13;;;;;;;14.38;8.52;;;1.10;99.90;;;;;;5096772;28;20486;-55
2023/12/06 02:49:39;;;;;;;15.38;8.45;;;1.10;99.90;;;;;;5096472;28;20126;-55
2023/12/06 02:52:05;;;;;;;14.73;8.27;;;1.10;99.90;;;;;;5095337;28;20079;-53
2023/12/06 02:54:31;;;;;;;14.07;8.40;;;1.10;99.90;;;;;;5096456;28;20044;-53
2023/12/06 02:56:57;;;;;;;15.18;8.52;;;1.10;99.90;;;;;;5096390;28;20050;-54
2023/12/06 02:59:22;;;;;;;15.07;8.15;;;1.10;99.90;;;;;;5096404;28;20204;-55
2023/12/06 03:01:48;;;;;;;14.98;8.75;;;1.20;99.90;;;;;;5096367;28;20123;-54
2023/12/06 03:04:13;;;;;;;16.58;7.90;;;1.10;99.90;;;;;;5095383;28;20056;-54
2023/12/06 03:06:39;;;;;;;12.45;7.28;;;1.10;99.90;;;;;;5095126;28;20052;-54
2023/12/06 03:09:05;;;;;;;13.93;7.72;;;1.10;99.90;;;;;;5095510;28;20044;-54
2023/12/06 03:11:31;;;;;;;14.30;7.82;;;1.20;99.90;;;;;;5096682;28;20479;-53
2023/12/06 03:13:56;;;;;;;19.13;8.30;;;1.10;99.90;;;;;;5096129;28;20394;-55
2023/12/06 03:16:22;;;;;;;14.30;7.95;;;1.10;99.90;;;;;;5096043;28;20043;-53
2023/12/06 03:18:50;;;;;;;14.18;8.20;;;1.10;99.90;;;;;;5096188;28;20097;-54
2023/12/06 03:21:16;;;;;;;13.88;8.20;;;1.20;99.90;;;;;;5095867;28;20056;-54
2023/12/06 03:23:42;;;;;;;15.63;8.18;;;1.20;99.90;;;;;;5095780;28;20048;-54
2023/12/06 03:26:07;;;;;;;15.65;7.95;;;1.20;99.90;;;;;;5095497;28;20663;-55
2023/12/06 03:28:33;;;;;;;14.95;7.85;;;1.20;99.90;;;;;;5096411;28;20052;-53
2023/12/06 03:31:00;;;;;;;14.18;7.93;;;1.20;99.90;;;;;;5094887;28;20048;-54
2023/12/06 03:33:26;;;;;;;14.13;7.60;;;1.20;99.90;;;;;;5095842;28;20108;-54
2023/12/06 03:35:51;;;;;;;13.77;8.02;;;1.20;99.90;;;;;;5095701;28;20414;-55
2023/12/06 03:38:17;;;;;;;14.18;7.50;;;1.20;99.90;;;;;;5095428;28;20122;-54
2023/12/06 03:40:43;;;;;;;14.43;8.07;;;1.20;99.90;;;;;;5095314;28;20437;-54
2023/12/06 03:43:08;;;;;;;15.07;8.23;;;1.20;99.90;;;;;;5095522;28;20421;-54
2023/12/06 03:45:34;;;;;;;16.20;7.93;;;1.20;99.90;;;;;;5095384;28;20046;-55
2023/12/06 03:48:01;;;;;;;14.93;8.07;;;1.20;99.90;;;;;;5095450;28;20063;-54
2023/12/06 03:50:26;;;;;;;12.35;6.95;;;1.20;99.90;;;;;;5095409;28;20059;-53
2023/12/06 03:52:52;;;;;;;12.67;7.47;;;1.20;99.90;;;;;;5095287;28;20044;-54
2023/12/06 03:55:18;;;;;;;16.08;7.15;;;1.20;99.90;;;;;;5095268;28;20126;-55
2023/12/06 03:57:43;;;;;;;13.45;7.43;;;1.20;99.90;;;;;;5095245;28;20048;-54
2023/12/06 04:00:10;;;;;;;14.32;7.47;;;1.20;99.90;;;;;;5095031;28;20109;-55
2023/12/06 04:02:36;;;;;;;13.57;6.63;;;1.20;99.90;;;;;;5095078;28;20491;-55
2023/12/06 04:05:02;;;;;;;13.07;7.28;;;1.20;99.90;;;;;;5094721;28;20093;-54
2023/12/06 04:07:28;;;;;;;11.60;7.05;;;1.20;99.90;;;;;;5094867;28;20546;-54
2023/12/06 04:09:54;;;;;;;14.38;8.00;;;1.20;99.90;;;;;;5095018;28;20495;-55
2023/12/06 04:12:19;;;;;;;11.55;6.95;;;1.20;99.90;;;;;;5094977;28;20047;-55
2023/12/06 04:14:45;;;;;;;11.17;7.10;;;1.30;99.90;;;;;;5095034;28;20040;-55
2023/12/06 04:17:11;;;;;;;11.45;6.90;;;1.30;99.90;;;;;;5093504;28;20412;-55
2023/12/06 04:19:38;;;;;;;13.68;7.53;;;1.30;99.90;;;;;;5094763;28;20046;-55
2023/12/06 04:22:04;;;;;;;13.15;6.90;;;1.30;99.90;;;;;;5094559;28;20059;-54
2023/12/06 04:24:30;;;;;;;11.93;6.88;;;1.30;99.90;;;;;;5093301;28;20044;-55
2023/12/06 04:26:56;;;;;;;11.15;6.32;;;1.30;99.90;;;;;;5095156;28;20066;-55
2023/12/06 04:29:22;;;;;;;11.52;5.88;;;1.30;99.90;;;;;;5094675;28;20490;-55
2023/12/06 04:31:48;;;;;;;11.90;6.80;;;1.30;99.90;;;;;;5094593;28;20130;-54
2023/12/06 04:34:14;;;;;;;12.30;6.45;;;1.30;99.90;;;;;;5094642;28;20075;-55
2023/12/06 04:36:40;;;;;;;11.57;6.40;;;1.30;99.90;;;;;;5093420;28;20170;-55
2023/12/06 04:39:05;;;;;;;11.45;6.25;;;1.30;99.90;;;;;;5094422;28;20127;-54
2023/12/06 04:41:31;;;;;;;13.10;6.70;;;1.30;99.90;;;;;;5094531;28;20051;-54
2023/12/06 04:43:57;;;;;;;10.88;5.50;;;1.30;99.90;;;;;;5093629;28;20475;-55
2023/12/06 04:46:23;;;;;;;12.00;6.25;;;1.30;99.90;;;;;;5094464;28;20048;-55
2023/12/06 04:48:48;;;;;;;11.38;6.22;;;1.30;99.90;;;;;;5094376;28;20071;-55
2023/12/06 04:51:15;;;;;;;13.37;6.60;;;1.30;99.90;;;;;;5094205;28;20040;-55
2023/12/06 04:53:41;;;;;;;10.65;6.20;;;1.30;99.90;;;;;;5094996;28;20165;-55
2023/12/06 04:56:07;;;;;;;16.83;7.28;;;1.30;99.90;;;;;;5093207;28;20475;-54
2023/12/06 04:58:33;;;;;;;10.13;5.68;;;1.30;99.90;;;;;;5093893;28;20101;-55
2023/12/06 05:00:58;;;;;;;10.98;5.65;;;1.30;99.90;;;;;;5093802;28;20051;-54
2023/12/06 05:03:24;;;;;;;11.40;5.97;;;1.30;99.90;;;;;;5092844;28;20087;-54
2023/12/06 05:05:50;;;;;;;12.07;6.03;;;1.30;99.90;;;;;;5093878;28;20044;-55
2023/12/06 05:08:16;;;;;;;12.35;6.05;;;1.40;99.90;;;;;;5093813;28;20044;-56
2023/12/06 05:10:42;;;;;;;11.85;6.20;;;1.30;99.90;;;;;;5094137;28;20406;-55
2023/12/06 05:13:08;;;;;;;11.50;5.40;;;1.30;99.90;;;;;;5093948;28;20048;-55
2023/12/06 05:15:34;;;;;;;11.98;5.93;;;1.40;99.90;;;;;;5092893;28;20066;-55
2023/12/06 05:18:01;;;;;;;13.33;5.83;;;1.40;99.90;;;;;;5094027;28;20044;-55
2023/12/06 05:20:27;;;;;;;11.57;5.55;;;1.40;99.90;;;;;;5092516;28;20131;-55
2023/12/06 05:22:52;;;;;;;11.83;6.37;;;1.40;99.90;;;;;;5094256;28;20135;-55
2023/12/06 05:25:19;;;;;;;12.05;5.63;;;1.40;99.90;;;;;;5094023;28;20098;-55
2023/12/06 05:27:45;;;;;;;12.32;5.78;;;1.40;99.90;;;;;;5093328;28;20398;-55
2023/12/06 05:30:11;;;;;;;13.03;6.03;;;1.40;99.90;;;;;;5092969;28;20052;-55
2023/12/06 05:32:37;;;;;;;11.65;6.05;;;1.30;99.90;;;;;;5093627;28;20062;-55
2023/12/06 05:35:04;;;;;;;9.68;5.53;;;1.30;99.90;;;;;;5093662;28;20047;-55
2023/12/06 05:37:30;;;;;;;10.98;5.80;;;1.40;99.90;;;;;;5094061;28;20157;-55
2023/12/06 05:39:56;;;;;;;12.32;6.38;;;1.40;99.90;;;;;;5093708;28;20061;-56
2023/12/06 05:42:21;;;;;;;12.60;6.97;;;1.40;99.90;;;;;;5093717;28;20433;-54
2023/12/06 05:44:47;;;;;;;12.43;7.00;;;1.40;99.90;;;;;;5092566;28;20437;-55
2023/12/06 05:47:13;;;;;;;14.68;6.57;;;1.30;99.90;;;;;;5093688;28;20123;-55
2023/12/06 05:49:39;;;;;;;14.10;6.65;;;1.40;99.90;;;;;;5092633;28;20531;-55
2023/12/06 05:52:05;;;;;;;12.52;5.90;;;1.40;99.90;;;;;;5093299;28;20044;-55
2023/12/06 05:54:30;;;;;;;11.52;6.15;;;1.40;99.90;;;;;;5093523;28;20047;-55
2023/12/06 05:56:57;;;;;;;13.25;5.75;;;1.40;99.90;;;;;;5092455;28;20044;-56
2023/12/06 05:59:23;;;;;;;;;;;1.50;99.90;;;;;;5093910;28;20052;-55
2023/12/06 06:01:49;;;;;;;13.80;6.07;;;1.40;99.90;;;;;;5075800;28;19968;-55
2023/12/06 06:04:15;;;;;;;12.80;6.63;;;1.40;99.90;;;;;;5092183;28;20138;-55
2023/12/06 06:06:41;;;;;;;13.23;6.33;;;1.40;99.90;;;;;;5093252;28;20063;-55
2023/12/06 06:09:07;;;;;;;11.50;6.22;;;1.50;99.90;;;;;;5093410;28;20055;-56
2023/12/06 06:11:32;;;;;;;12.67;6.53;;;1.40;99.90;;;;;;5093418;28;20476;-56
2023/12/06 06:13:58;;;;;;;12.85;6.10;;;1.50;99.90;;;;;;5093589;28;20491;-56
2023/12/06 06:16:24;;;;;;;14.40;6.55;;;1.40;99.90;;;;;;5093443;28;20429;-55
2023/12/06 06:18:49;;;;;;;10.32;5.72;;;1.40;99.90;;;;;;5092209;28;20518;-55
2023/12/06 06:21:15;;;;;;;11.67;5.87;;;1.40;99.90;;;;;;5093403;28;20054;-55
2023/12/06 06:23:41;;;;;;;11.83;6.07;;;1.40;99.90;;;;;;5093540;28;20097;-56
2023/12/06 06:26:09;;;;;;;13.23;6.10;;;1.40;99.90;;;;;;5093182;28;20048;-55
2023/12/06 06:28:35;;;;;;;10.35;6.22;;;1.40;99.90;;;;;;5093109;28;20052;-55
2023/12/06 06:31:01;;;;;;;12.05;5.78;;;1.50;99.90;;;;;;5093108;28;20093;-55
2023/12/06 06:33:26;;;;;;;11.68;5.90;;;1.40;99.90;;;;;;5093025;28;20119;-55
2023/12/06 06:35:52;;;;;;;10.18;5.60;;;1.40;99.90;;;;;;5092950;28;20097;-55
2023/12/06 06:38:18;;;;;;;10.90;5.50;;;1.40;99.90;;;;;;5093111;28;20048;-56
2023/12/06 06:40:43;;;;;;;11.32;6.55;;;1.40;99.90;;;;;;5095289;28;20048;-56
2023/12/06 06:43:09;;;;;;;9.93;5.50;;;1.40;99.90;;;;;;5096760;28;20462;-55
2023/12/06 06:45:35;;;;;;;10.50;5.45;;;1.40;99.90;;;;;;5096428;28;20044;-56
2023/12/06 06:48:01;;;;;;;11.90;6.40;;;1.40;99.90;;;;;;5096498;28;20040;-55
2023/12/06 06:50:27;;;;;;;10.07;5.60;;;1.50;99.90;;;;;;5096562;28;20055;-56
2023/12/06 06:52:52;;;;;;;10.05;5.10;;;1.50;99.90;;;;;;5095621;28;20459;-55
2023/12/06 06:55:18;;;;;;;11.57;5.93;;;1.40;99.90;;;;;;5096577;28;20044;-56
2023/12/06 06:57:43;;;;;;;11.18;5.53;;;1.50;99.90;;;;;;5096382;28;20090;-55
2023/12/06 07:00:13;;;;;;;10.27;5.72;;;1.50;99.90;;;;;;5096311;28;20040;-56
2023/12/06 07:02:39;;;;;;;10.52;5.90;;;1.50;99.90;;;;;;5096302;28;20169;-55
2023/12/06 07:05:06;;;;;;;9.70;5.03;;;1.50;99.90;;;;;;5095860;28;20044;-55
2023/12/06 07:07:31;;;;;;;10.30;5.40;;;1.50;99.90;;;;;;5095281;28;20090;-55
2023/12/06 07:09:57;;;;;;;9.63;5.82;;;1.50;99.90;;;;;;5096140;28;20079;-56
2023/12/06 07:12:23;;;;;;;11.88;6.38;;;1.50;99.90;;;;;;5096136;28;20052;-56
2023/12/06 07:14:48;;;;;;;9.27;5.38;;;1.50;99.90;;;;;;5096388;28;20052;-56
2023/12/06 07:17:14;;;;;;;10.30;4.93;;;1.50;99.90;;;;;;5095929;28;20100;-56
2023/12/06 07:19:42;;;;;;;10.23;5.70;;;1.50;99.90;;;;;;5096192;28;20403;-55
2023/12/06 07:22:07;;;;;;;9.80;4.93;;;1.50;99.90;;;;;;5096037;28;20048;-55
2023/12/06 07:24:33;;;;;;;10.38;5.22;;;1.50;99.90;;;;;;5095815;28;20441;-56
2023/12/06 07:26:59;;;;;;;8.68;4.80;;;1.60;99.90;;;;;;5094897;28;20395;-55
2023/12/06 07:29:24;;;;;;;10.40;5.75;;;1.50;99.90;;;;;;5095660;28;20080;-55
2023/12/06 07:31:50;;;;;;;9.38;5.20;;;1.50;99.90;;;;;;5094757;28;20080;-55
2023/12/06 07:34:17;;;;;;;11.47;6.00;;;1.60;99.90;;;;;;5095745;28;20078;-55
2023/12/06 07:36:44;;;;;;;10.65;5.57;;;1.60;99.90;;;;;;5095703;28;20135;-55
2023/12/06 07:39:11;;;;;;;;;;;1.60;99.90;;;;;;5096109;28;20097;-55
2023/12/06 07:41:36;;;;;;;10.57;5.97;;;1.60;99.90;;;;;;5095553;28;19926;-55
2023/12/06 07:44:02;;;;;;;12.60;6.57;;;1.60;99.90;;;;;;5095524;28;20114;-55
2023/12/06 07:46:28;;;;;;;12.23;6.50;;;1.60;99.90;;;;;;5095416;28;20394;-55
2023/12/06 07:48:53;;;;;;;11.07;6.55;;;1.60;99.90;;;;;;5095429;28;20051;-55
2023/12/06 07:51:19;;;;;;;10.32;6.07;;;1.60;99.90;;;;;;5095208;28;20052;-55
2023/12/06 07:53:45;;;;;;;11.80;6.63;;;1.60;99.90;;;;;;5095386;28;20387;-56
2023/12/06 07:56:11;;;;;;;10.35;5.90;;;1.60;99.90;;;;;;5095357;28;20444;-55
2023/12/06 07:58:37;;;;;;;12.05;6.72;;;1.60;99.90;;;;;;5094114;28;20051;-55
2023/12/06 08:01:03;;;;;;;11.50;6.97;;;1.70;99.90;;;;;;5094063;28;20475;-55
2023/12/06 08:03:31;;;;;;;11.37;7.00;;;1.70;99.90;;;;;;5094936;28;20205;-55
2023/12/06 08:05:59;;;;;;;12.00;6.72;;;1.70;99.90;;;;;;5094936;28;20055;-56
2023/12/06 08:08:26;;;;;;;12.40;7.03;;;1.70;99.90;;;;;;5095386;28;20040;-55
2023/12/06 08:10:52;;;;;;;10.55;6.55;;;1.80;99.90;;;;;;5095074;28;20044;-56
2023/12/06 08:13:18;;;;;;;11.88;6.63;;;1.70;99.90;;;;;;5095004;28;20048;-56
2023/12/06 08:15:44;;;;;;;13.63;7.17;;;1.70;99.90;;;;;;5094903;28;20073;-56
2023/12/06 08:18:10;;;;;;;12.10;7.00;;;1.70;99.90;;;;;;5094946;28;20056;-56
2023/12/06 08:20:36;;;;;;;12.37;7.23;;;1.70;99.90;;;;;;5095325;28;20458;-55
2023/12/06 08:23:04;;;;;;;11.68;7.28;;;1.70;99.90;;;;;;5094745;28;20521;-56
2023/12/06 08:25:30;;;;;;;11.02;7.13;;;1.70;99.90;;;;;;5094513;28;20044;-56
2023/12/06 08:27:56;;;;;;;14.43;7.38;;;1.70;99.90;;;;;;5094700;28;20105;-56
2023/12/06 08:30:21;;;;;;;12.63;6.78;;;1.70;99.90;;;;;;5094552;28;20048;-56
2023/12/06 08:32:47;;;;;;;17.40;8.02;;;1.70;99.90;;;;;;5094646;28;20094;-55
2023/12/06 08:35:13;;;;;;;14.02;7.68;;;1.70;99.90;;;;;;5093348;28;20054;-56
2023/12/06 08:37:41;;;;;;;12.07;7.30;;;1.70;99.90;;;;;;5094541;28;20043;-56
2023/12/06 08:40:09;;;;;;;12.00;7.20;;;1.80;99.90;;;;;;5094509;28;20074;-56
2023/12/06 08:42:35;;;;;;;12.25;7.50;;;1.70;99.90;;;;;;5094316;28;20044;-56
2023/12/06 08:45:01;;;;;;;11.90;7.20;;;1.80;99.90;;;;;;5094276;28;20044;-56
2023/12/06 08:47:26;;;;;;;13.30;7.05;;;1.80;99.90;;;;;;5094369;28;20059;-56
2023/12/06 08:49:52;;;;;;;11.27;7.43;;;1.80;99.90;;;;;;5093274;28;20048;-56
2023/12/06 08:52:18;;;;;;;11.48;6.68;;;1.80;99.90;;;;;;5094268;28;20039;-56
2023/12/06 08:54:43;;;;;;;12.50;7.10;;;1.80;99.90;;;;;;5094183;28;20471;-56
2023/12/06 08:57:09;;;;;;;11.55;6.70;;;1.80;99.90;;;;;;5094162;28;20051;-56
2023/12/06 08:59:35;;;;;;;11.18;6.32;;;1.80;99.90;;;;;;5094042;28;20047;-56
2023/12/06 09:02:01;;;;;;;10.53;6.03;;;1.80;99.90;;;;;;5093633;28;20048;-56
2023/12/06 09:04:27;;;;;;;10.57;5.87;;;1.80;99.90;;;;;;5093698;28;20394;-56
2023/12/06 09:06:53;;;;;;;13.88;6.97;;;1.90;99.90;;;;;;5094179;28;20135;-56
2023/12/06 09:09:19;;;;;;;13.13;6.20;;;1.90;99.90;;;;;;5094142;28;20083;-56
2023/12/06 09:11:45;;;;;;;10.60;5.87;;;1.90;99.90;;;;;;5093853;28;20094;-56
2023/12/06 09:14:11;;;;;;;10.98;6.13;;;1.90;99.90;;;;;;5093755;28;20093;-56
2023/12/06 09:16:36;;;;;;;11.80;6.10;;;1.90;99.90;;;;;;5092869;28;20044;-56
2023/12/06 09:19:03;;;;;;;9.75;6.05;;;1.90;99.90;;;;;;5093906;28;20089;-56
2023/12/06 09:21:46;;;;;;;11.13;6.05;;;1.90;99.90;;;;;;5093822;28;20055;-56
2023/12/06 09:24:15;;;;;;;10.13;5.30;;;1.90;99.90;;;;;;5093674;28;20415;-56
2023/12/06 09:26:41;;;;;;;12.32;6.72;;;1.90;99.90;;;;;;5092610;28;20071;-56
2023/12/06 09:29:08;;;;;;;11.18;6.45;;;1.90;99.90;;;;;;5093877;28;20087;-56
2023/12/06 09:31:35;;;;;;;11.43;5.60;;;1.90;99.90;;;;;;5093590;28;20032;-56
2023/12/06 09:34:01;;;;;;;9.18;5.15;;;1.90;99.90;;;;;;5093932;28;20048;-55
2023/12/06 09:36:28;;;;;;;8.40;5.15;;;1.90;99.90;;;;;;5093803;28;20048;-56
2023/12/06 09:38:58;;;;;;;11.27;6.15;;;1.90;99.90;;;;;;5093696;28;20048;-56
2023/12/06 09:41:33;;;;;;;13.85;5.90;;;1.90;99.90;;;;;;5093407;28;20048;-56
2023/12/06 09:44:00;;;;;;;11.52;6.00;;;2.00;99.90;;;;;;5093874;28;20509;-56
2023/12/06 09:46:26;;;;;;;13.85;6.00;;;1.90;99.90;;;;;;5093605;28;20081;-56
2023/12/06 09:48:52;;;;;;;10.85;5.78;;;2.00;99.90;;;;;;5093653;28;20040;-56
2023/12/06 09:51:22;;;;;;;10.73;6.13;;;2.00;99.90;;;;;;5093518;28;20098;-56
2023/12/06 09:53:48;;;;;;;9.70;5.55;;;2.00;99.90;;;;;;5093386;28;20048;-56
2023/12/06 09:56:14;;;;;;;9.05;5.32;;;2.00;99.90;;;;;;5092446;28;20079;-55
2023/12/06 09:58:40;;;;;;;9.80;5.82;;;2.00;99.90;;;;;;5093550;28;20084;-56
2023/12/06 10:01:06;;;;;;;10.45;5.03;;;2.00;99.90;;;;;;5093494;28;20044;-55
2023/12/06 10:03:32;;;;;;;10.93;5.75;;;2.00;99.90;;;;;;5093277;28;20437;-55
2023/12/06 10:06:03;;;;;;;11.73;5.40;;;2.00;99.90;;;;;;5093278;28;20088;-56
2023/12/06 10:08:31;;;;;;;9.63;5.65;;;2.00;99.90;;;;;;5093353;28;20051;-56
2023/12/06 10:11:08;;;;;;;10.10;5.50;;;2.00;99.90;;;;;;5093531;28;20131;-56
2023/12/06 10:13:35;;;;;;;11.80;5.72;;;2.10;99.90;;;;;;5093762;28;20131;-56
2023/12/06 10:16:01;;;;;;;;;;;2.00;99.90;;;;;;5097545;28;20044;-55
2023/12/06 10:18:27;;;;;;;10.75;5.85;;;2.10;99.90;;;;;;5095876;28;19926;-56
2023/12/06 10:20:53;;;;;;;12.40;6.30;;;2.00;99.90;;;;;;5097079;28;20050;-56
2023/12/06 10:23:19;;;;;;;13.07;6.47;;;2.10;99.90;;;;;;5097447;28;20459;-55
2023/12/06 10:25:49;;;;;;;12.60;6.18;;;2.10;99.90;;;;;;5097313;28;20088;-55
2023/12/06 10:28:17;;;;;;;10.40;6.18;;;2.10;99.90;;;;;;5097339;28;20379;-56
2023/12/06 10:30:43;;;;;;;10.55;6.10;;;2.10;99.90;;;;;;5096869;28;20048;-56
2023/12/06 10:33:10;;;;;;;10.77;6.22;;;2.10;99.90;;;;;;5096991;28;20048;-56
2023/12/06 10:35:36;;;;;;;11.95;7.03;;;2.00;99.90;;;;;;5096765;28;20040;-56
2023/12/06 10:38:03;;;;;;;11.75;5.97;;;2.10;99.90;;;;;;5097045;28;20048;-55
2023/12/06 10:40:29;;;;;;;;;;;2.10;99.90;;;;;;5097285;28;20120;-55
2023/12/06 10:43:05;;;;;;;10.77;6.20;;;2.10;99.90;;;;;;5096813;28;19919;-55
2023/12/06 10:45:33;;;;;;;11.70;6.60;;;2.10;99.90;;;;;;5096707;28;20040;-56
2023/12/06 10:48:01;;;;;;;12.93;6.50;;;2.00;99.90;;;;;;5096563;28;20047;-56
2023/12/06 10:50:30;;;;;;;13.35;6.53;;;2.10;99.90;;;;;;5096648;28;20047;-55
2023/12/06 10:52:57;;;;;;;10.23;6.22;;;2.10;99.90;;;;;;5096523;28;20181;-56
2023/12/06 10:55:28;;;;;;;11.18;6.72;;;2.10;99.90;;;;;;5096547;28;20119;-55
2023/12/06 10:57:57;;;;;;;12.75;6.40;;;2.10;99.90;;;;;;5096440;28;20051;-55
2023/12/06 11:00:23;;;;;;;11.35;6.43;;;2.10;99.90;;;;;;5095248;28;20048;-56
2023/12/06 11:02:49;;;;;;;11.50;6.95;;;2.10;99.90;;;;;;5096053;28;20052;-56
2023/12/06 11:05:19;;;;;;;10.02;6.47;;;2.10;99.90;;;;;;5096520;28;20079;-56
2023/12/06 11:08:14;;;;;;;13.45;6.82;;;2.10;99.90;;;;;;5096787;28;20451;-56
2023/12/06 11:11:12;;;;;;;12.65;6.63;;;2.20;99.90;;;;;;5096191;28;20044;-56
2023/12/06 11:14:00;;;;;;;11.63;5.93;;;2.20;99.90;;;;;;5078661;28;20059;-56
2023/12/06 11:16:44;;;;;;;11.43;6.47;;;2.20;99.90;;;;;;5096129;28;20402;-56
2023/12/06 11:19:12;;;;;;;11.48;5.75;;;2.30;99.90;;;;;;5096125;28;20079;-56
2023/12/06 11:21:38;;;;;;;13.52;6.80;;;2.30;99.90;;;;;;5096041;28;20062;-56
2023/12/06 11:24:08;;;;;;;12.00;6.28;;;2.30;99.90;;;;;;5096021;28;20055;-56
2023/12/06 11:26:33;;;;;;;12.40;6.70;;;2.30;99.90;;;;;;5095064;28;20051;-56
2023/12/06 11:29:02;;;;;;;13.02;6.22;;;2.30;99.90;;;;;;5095793;28;20048;-56
2023/12/06 11:31:37;;;;;;;11.65;5.95;;;2.30;99.90;;;;;;5095755;28;20086;-56
2023/12/06 11:34:05;;;;;;;9.52;5.57;;;2.40;99.90;;;;;;5095587;28;20597;-56
2023/12/06 11:36:30;;;;;;;9.48;5.82;;;2.30;99.90;;;;;;5095752;28;20055;-56
2023/12/06 11:38:56;;;;;;;10.55;5.90;;;2.30;99.90;;;;;;5095654;28;20052;-56
2023/12/06 11:41:22;;;;;;;11.30;6.07;;;2.40;99.90;;;;;;5095852;28;20108;-56
2023/12/06 11:43:50;;;;;;;11.57;5.63;;;2.40;99.90;;;;;;5095890;28;20118;-56
2023/12/06 11:46:16;;;;;;;10.20;5.30;;;2.40;99.90;;;;;;5095336;28;20044;-56
2023/12/06 11:48:45;;;;;;;11.15;5.97;;;2.40;99.90;;;;;;5095286;28;20052;-56
2023/12/06 11:51:19;;;;;;;9.40;5.55;;;2.40;99.90;;;;;;5095490;28;20048;-56
2023/12/06 11:53:45;;;;;;;7.90;4.95;;;2.40;99.90;;;;;;5095427;28;20049;-56
2023/12/06 11:56:11;;;;;;;10.02;5.38;;;2.50;99.90;;;;;;5094236;28;20089;-56
2023/12/06 11:58:38;;;;;;;9.23;5.40;;;2.50;99.90;;;;;;5095306;28;20052;-55
2023/12/06 12:01:04;;;;;;;8.80;5.00;;;2.50;99.90;;;;;;5095014;28;20048;-56
2023/12/06 12:03:35;;;;;;;12.07;4.95;;;2.50;99.90;;;;;;5095040;28;20047;-56
2023/12/06 12:06:01;;;;;;;9.77;5.32;;;2.50;99.90;;;;;;5095010;28;20055;-56
2023/12/06 12:08:28;;;;;;;8.32;4.70;;;2.50;99.90;;;;;;5095123;28;20533;-56
2023/12/06 12:10:54;;;;;;;8.55;4.85;;;2.50;99.90;;;;;;5095124;28;20047;-56
2023/12/06 12:13:24;;;;;;;8.00;4.82;;;2.50;99.90;;;;;;5094960;28;20549;-56
2023/12/06 12:15:56;;;;;;;8.68;4.35;;;2.50;99.90;;;;;;5094816;28;20036;-56
2023/12/06 12:18:24;;;;;;;10.25;5.05;;;2.50;99.90;;;;;;5094933;28;20040;-56
2023/12/06 12:20:49;;;;;;;9.02;4.72;;;2.50;99.90;;;;;;5094854;28;20130;-56
2023/12/06 12:23:15;;;;;;;9.23;4.97;;;2.60;99.90;;;;;;5094827;28;20130;-56
2023/12/06 12:25:49;;;;;;;10.13;5.33;;;2.50;99.90;;;;;;5094706;28;20097;-56
2023/12/06 12:28:19;;;;;;;7.90;4.63;;;2.60;99.90;;;;;;5093660;28;20074;-56
2023/12/06 12:30:55;;;;;;;9.02;4.63;;;2.60;99.90;;;;;;5094748;28;20048;-56
2023/12/06 12:33:22;;;;;;;8.25;4.60;;;2.50;99.90;;;;;;5093918;28;20059;-56
2023/12/06 12:35:48;;;;;;;8.10;3.90;;;2.60;99.90;;;;;;5094550;28;20036;-56
2023/12/06 12:38:15;;;;;;;7.50;4.50;;;2.50;99.90;;;;;;5094566;28;20052;-56
2023/12/06 12:40:43;;;;;;;8.23;4.20;;;2.50;99.90;;;;;;5094457;28;20394;-56
2023/12/06 12:43:10;;;;;;;7.40;4.15;;;2.60;99.90;;;;;;5094489;28;20475;-56
2023/12/06 12:45:37;;;;;;;8.05;4.28;;;2.60;99.90;;;;;;5094530;28;20510;-56